sensor_id;sensor_type;location;lat;lon;timestamp;P1;durP1;ratioP1;P2;durP2;ratioP2
24261;SDS011;12385;51.412;5.540;2023-04-02T00:07:42;26.35;;;18.98;;
24261;SDS011;12385;51.412;5.540;2023-04-02T00:15:37;23.63;;;19.90;;
24261;SDS011;12385;51.412;5.540;2023-04-02T00:18:05;21.27;;;18.58;;
24261;SDS011;12385;51.412;5.540;2023-04-02T00:20:32;22.08;;;18.40;;
24261;SDS011;12385;51.412;5.540;2023-04-02T00:23:03;22.85;;;18.40;;
24261;SDS011;12385;51.412;5.540;2023-04-02T00:25:32;17.50;;;15.35;;
24261;SDS011;12385;51.412;5.540;2023-04-02T00:28:01;18.67;;;15.52;;
24261;SDS011;12385;51.412;5.540;2023-04-02T00:30:28;20.92;;;17.55;;
24261;SDS011;12385;51.412;5.540;2023-04-02T00:32:54;18.05;;;15.70;;
24261;SDS011;12385;51.412;5.540;2023-04-02T00:35:27;17.63;;;15.13;;
24261;SDS011;12385;51.412;5.540;2023-04-02T00:37:53;19.40;;;16.08;;
24261;SDS011;12385;51.412;5.540;2023-04-02T00:40:27;18.95;;;16.02;;
24261;SDS011;12385;51.412;5.540;2023-04-02T00:42:57;20.17;;;16.50;;
24261;SDS011;12385;51.412;5.540;2023-04-02T00:47:56;16.58;;;14.18;;
24261;SDS011;12385;51.412;5.540;2023-04-02T00:50:33;14.73;;;13.02;;
24261;SDS011;12385;51.412;5.540;2023-04-02T00:53:05;15.52;;;13.13;;
24261;SDS011;12385;51.412;5.540;2023-04-02T00:55:38;16.38;;;13.25;;
24261;SDS011;12385;51.412;5.540;2023-04-02T00:58:22;15.88;;;13.50;;
24261;SDS011;12385;51.412;5.540;2023-04-02T01:00:50;15.50;;;13.48;;
24261;SDS011;12385;51.412;5.540;2023-04-02T01:06:01;22.85;;;17.30;;
24261;SDS011;12385;51.412;5.540;2023-04-02T01:11:21;22.15;;;17.27;;
24261;SDS011;12385;51.412;5.540;2023-04-02T01:14:05;22.30;;;17.63;;
24261;SDS011;12385;51.412;5.540;2023-04-02T01:25:25;21.95;;;17.98;;
24261;SDS011;12385;51.412;5.540;2023-04-02T01:28:17;21.00;;;16.77;;
24261;SDS011;12385;51.412;5.540;2023-04-02T01:30:56;21.70;;;17.50;;
24261;SDS011;12385;51.412;5.540;2023-04-02T01:33:27;21.52;;;16.58;;
24261;SDS011;12385;51.412;5.540;2023-04-02T01:36:00;20.58;;;16.50;;
24261;SDS011;12385;51.412;5.540;2023-04-02T01:38:59;22.23;;;17.10;;
24261;SDS011;12385;51.412;5.540;2023-04-02T01:41:30;21.98;;;17.52;;
24261;SDS011;12385;51.412;5.540;2023-04-02T01:44:07;21.83;;;16.77;;
24261;SDS011;12385;51.412;5.540;2023-04-02T01:46:37;19.52;;;15.50;;
24261;SDS011;12385;51.412;5.540;2023-04-02T01:49:24;19.85;;;15.98;;
24261;SDS011;12385;51.412;5.540;2023-04-02T01:51:50;19.40;;;14.38;;
24261;SDS011;12385;51.412;5.540;2023-04-02T01:54:20;16.38;;;12.95;;
24261;SDS011;12385;51.412;5.540;2023-04-02T01:56:46;15.95;;;12.23;;
24261;SDS011;12385;51.412;5.540;2023-04-02T01:59:18;17.30;;;12.60;;
24261;SDS011;12385;51.412;5.540;2023-04-02T02:01:51;16.40;;;12.38;;
24261;SDS011;12385;51.412;5.540;2023-04-02T02:04:25;15.13;;;11.70;;
24261;SDS011;12385;51.412;5.540;2023-04-02T02:06:51;17.15;;;13.27;;
24261;SDS011;12385;51.412;5.540;2023-04-02T02:09:21;18.63;;;13.90;;
24261;SDS011;12385;51.412;5.540;2023-04-02T02:11:52;16.20;;;13.05;;
24261;SDS011;12385;51.412;5.540;2023-04-02T02:14:22;17.95;;;13.85;;
24261;SDS011;12385;51.412;5.540;2023-04-02T02:16:49;19.73;;;13.77;;
24261;SDS011;12385;51.412;5.540;2023-04-02T02:22:11;16.95;;;13.70;;
24261;SDS011;12385;51.412;5.540;2023-04-02T02:24:44;18.40;;;13.95;;
24261;SDS011;12385;51.412;5.540;2023-04-02T02:30:11;22.17;;;14.15;;
24261;SDS011;12385;51.412;5.540;2023-04-02T02:32:40;17.02;;;13.80;;
24261;SDS011;12385;51.412;5.540;2023-04-02T02:35:45;14.32;;;10.60;;
24261;SDS011;12385;51.412;5.540;2023-04-02T02:40:54;9.65;;;7.18;;
24261;SDS011;12385;51.412;5.540;2023-04-02T02:43:23;7.60;;;6.22;;
24261;SDS011;12385;51.412;5.540;2023-04-02T02:45:50;8.88;;;5.82;;
24261;SDS011;12385;51.412;5.540;2023-04-02T02:48:20;9.60;;;6.50;;
24261;SDS011;12385;51.412;5.540;2023-04-02T02:50:53;9.18;;;6.30;;
24261;SDS011;12385;51.412;5.540;2023-04-02T02:53:21;8.45;;;6.53;;
24261;SDS011;12385;51.412;5.540;2023-04-02T02:55:49;8.38;;;6.80;;
24261;SDS011;12385;51.412;5.540;2023-04-02T02:58:22;6.95;;;6.03;;
24261;SDS011;12385;51.412;5.540;2023-04-02T03:00:51;6.95;;;6.25;;
24261;SDS011;12385;51.412;5.540;2023-04-02T03:03:19;8.35;;;6.88;;
24261;SDS011;12385;51.412;5.540;2023-04-02T03:05:55;7.93;;;6.85;;
24261;SDS011;12385;51.412;5.540;2023-04-02T03:08:27;7.75;;;6.95;;
24261;SDS011;12385;51.412;5.540;2023-04-02T03:11:10;10.95;;;8.68;;
24261;SDS011;12385;51.412;5.540;2023-04-02T03:13:50;15.43;;;10.35;;
24261;SDS011;12385;51.412;5.540;2023-04-02T03:16:55;13.73;;;9.95;;
24261;SDS011;12385;51.412;5.540;2023-04-02T03:19:37;14.30;;;11.30;;
24261;SDS011;12385;51.412;5.540;2023-04-02T03:22:23;15.50;;;11.40;;
24261;SDS011;12385;51.412;5.540;2023-04-02T03:25:01;19.02;;;12.32;;
24261;SDS011;12385;51.412;5.540;2023-04-02T03:27:31;14.20;;;11.20;;
24261;SDS011;12385;51.412;5.540;2023-04-02T03:32:52;15.05;;;11.13;;
24261;SDS011;12385;51.412;5.540;2023-04-02T03:35:30;16.73;;;10.80;;
24261;SDS011;12385;51.412;5.540;2023-04-02T03:37:59;15.93;;;11.25;;
24261;SDS011;12385;51.412;5.540;2023-04-02T03:40:40;15.95;;;11.20;;
24261;SDS011;12385;51.412;5.540;2023-04-02T03:43:13;18.15;;;11.30;;
24261;SDS011;12385;51.412;5.540;2023-04-02T03:45:45;15.68;;;11.52;;
24261;SDS011;12385;51.412;5.540;2023-04-02T03:53:56;14.30;;;10.18;;
24261;SDS011;12385;51.412;5.540;2023-04-02T03:59:03;14.05;;;11.07;;
24261;SDS011;12385;51.412;5.540;2023-04-02T04:01:42;16.63;;;10.52;;
24261;SDS011;12385;51.412;5.540;2023-04-02T04:04:15;15.00;;;10.10;;
24261;SDS011;12385;51.412;5.540;2023-04-02T04:06:44;13.32;;;9.50;;
24261;SDS011;12385;51.412;5.540;2023-04-02T04:09:28;13.63;;;9.70;;
24261;SDS011;12385;51.412;5.540;2023-04-02T04:14:45;13.82;;;9.70;;
24261;SDS011;12385;51.412;5.540;2023-04-02T04:22:26;13.13;;;10.00;;
24261;SDS011;12385;51.412;5.540;2023-04-02T04:25:16;15.48;;;10.23;;
24261;SDS011;12385;51.412;5.540;2023-04-02T04:27:54;16.45;;;11.30;;
24261;SDS011;12385;51.412;5.540;2023-04-02T04:33:49;18.85;;;12.57;;
24261;SDS011;12385;51.412;5.540;2023-04-02T04:36:23;18.52;;;13.73;;
24261;SDS011;12385;51.412;5.540;2023-04-02T04:38:52;19.98;;;13.82;;
24261;SDS011;12385;51.412;5.540;2023-04-02T04:41:33;20.55;;;14.80;;
24261;SDS011;12385;51.412;5.540;2023-04-02T04:47:16;21.30;;;14.07;;
24261;SDS011;12385;51.412;5.540;2023-04-02T04:49:46;20.88;;;14.68;;
24261;SDS011;12385;51.412;5.540;2023-04-02T04:52:25;20.63;;;14.43;;
24261;SDS011;12385;51.412;5.540;2023-04-02T04:54:54;19.50;;;14.13;;
24261;SDS011;12385;51.412;5.540;2023-04-02T04:57:31;19.20;;;14.13;;
24261;SDS011;12385;51.412;5.540;2023-04-02T05:00:09;22.13;;;15.25;;
24261;SDS011;12385;51.412;5.540;2023-04-02T05:02:40;21.65;;;14.30;;
24261;SDS011;12385;51.412;5.540;2023-04-02T05:05:20;21.60;;;14.18;;
24261;SDS011;12385;51.412;5.540;2023-04-02T05:08:03;25.73;;;14.68;;
24261;SDS011;12385;51.412;5.540;2023-04-02T05:10:51;19.95;;;13.43;;
24261;SDS011;12385;51.412;5.540;2023-04-02T05:16:20;19.77;;;12.55;;
24261;SDS011;12385;51.412;5.540;2023-04-02T05:19:02;19.15;;;12.77;;
24261;SDS011;12385;51.412;5.540;2023-04-02T05:26:53;18.05;;;13.02;;
24261;SDS011;12385;51.412;5.540;2023-04-02T05:29:27;24.40;;;14.25;;
24261;SDS011;12385;51.412;5.540;2023-04-02T05:31:58;19.67;;;13.00;;
24261;SDS011;12385;51.412;5.540;2023-04-02T05:34:36;20.48;;;13.30;;
24261;SDS011;12385;51.412;5.540;2023-04-02T05:37:04;22.33;;;12.95;;
24261;SDS011;12385;51.412;5.540;2023-04-02T05:39:30;21.50;;;13.32;;
24261;SDS011;12385;51.412;5.540;2023-04-02T05:41:58;22.00;;;13.38;;
24261;SDS011;12385;51.412;5.540;2023-04-02T05:44:42;22.00;;;12.45;;
24261;SDS011;12385;51.412;5.540;2023-04-02T05:47:25;20.02;;;12.07;;
24261;SDS011;12385;51.412;5.540;2023-04-02T05:50:08;19.08;;;12.25;;
24261;SDS011;12385;51.412;5.540;2023-04-02T05:52:44;21.48;;;12.07;;
24261;SDS011;12385;51.412;5.540;2023-04-02T05:57:51;17.23;;;11.20;;
24261;SDS011;12385;51.412;5.540;2023-04-02T06:00:25;19.35;;;11.88;;
24261;SDS011;12385;51.412;5.540;2023-04-02T06:03:18;17.52;;;11.15;;
24261;SDS011;12385;51.412;5.540;2023-04-02T06:06:14;24.33;;;11.25;;
24261;SDS011;12385;51.412;5.540;2023-04-02T06:08:59;16.80;;;11.32;;
24261;SDS011;12385;51.412;5.540;2023-04-02T06:11:36;19.02;;;11.23;;
24261;SDS011;12385;51.412;5.540;2023-04-02T06:14:08;21.27;;;11.23;;
24261;SDS011;12385;51.412;5.540;2023-04-02T06:16:38;18.02;;;10.43;;
24261;SDS011;12385;51.412;5.540;2023-04-02T06:19:06;19.27;;;9.57;;
24261;SDS011;12385;51.412;5.540;2023-04-02T06:21:46;16.15;;;9.55;;
24261;SDS011;12385;51.412;5.540;2023-04-02T06:24:15;13.48;;;9.32;;
24261;SDS011;12385;51.412;5.540;2023-04-02T06:26:50;19.98;;;9.90;;
24261;SDS011;12385;51.412;5.540;2023-04-02T06:34:31;16.55;;;9.20;;
24261;SDS011;12385;51.412;5.540;2023-04-02T06:36:58;16.25;;;8.57;;
24261;SDS011;12385;51.412;5.540;2023-04-02T06:39:27;17.65;;;9.32;;
24261;SDS011;12385;51.412;5.540;2023-04-02T06:42:03;13.93;;;8.65;;
24261;SDS011;12385;51.412;5.540;2023-04-02T06:44:53;16.58;;;9.00;;
24261;SDS011;12385;51.412;5.540;2023-04-02T06:47:27;18.42;;;8.27;;
24261;SDS011;12385;51.412;5.540;2023-04-02T06:52:45;14.38;;;8.88;;
24261;SDS011;12385;51.412;5.540;2023-04-02T06:58:15;12.85;;;8.27;;
24261;SDS011;12385;51.412;5.540;2023-04-02T07:00:42;14.50;;;8.75;;
24261;SDS011;12385;51.412;5.540;2023-04-02T07:03:13;17.67;;;8.32;;
24261;SDS011;12385;51.412;5.540;2023-04-02T07:05:53;12.20;;;8.25;;
24261;SDS011;12385;51.412;5.540;2023-04-02T07:08:20;14.75;;;8.32;;
24261;SDS011;12385;51.412;5.540;2023-04-02T07:10:46;20.02;;;8.82;;
24261;SDS011;12385;51.412;5.540;2023-04-02T07:13:16;17.65;;;8.75;;
24261;SDS011;12385;51.412;5.540;2023-04-02T07:15:44;12.98;;;8.55;;
24261;SDS011;12385;51.412;5.540;2023-04-02T07:18:26;12.30;;;7.63;;
24261;SDS011;12385;51.412;5.540;2023-04-02T07:20:57;13.20;;;8.23;;
24261;SDS011;12385;51.412;5.540;2023-04-02T07:23:23;15.75;;;8.52;;
24261;SDS011;12385;51.412;5.540;2023-04-02T07:25:51;17.27;;;8.10;;
24261;SDS011;12385;51.412;5.540;2023-04-02T07:28:18;13.25;;;7.43;;
24261;SDS011;12385;51.412;5.540;2023-04-02T07:30:45;14.90;;;7.20;;
24261;SDS011;12385;51.412;5.540;2023-04-02T07:33:17;12.75;;;7.38;;
24261;SDS011;12385;51.412;5.540;2023-04-02T07:35:45;11.38;;;6.80;;
24261;SDS011;12385;51.412;5.540;2023-04-02T07:38:11;13.35;;;6.90;;
24261;SDS011;12385;51.412;5.540;2023-04-02T07:40:37;14.27;;;7.68;;
24261;SDS011;12385;51.412;5.540;2023-04-02T07:43:03;12.13;;;6.32;;
24261;SDS011;12385;51.412;5.540;2023-04-02T07:45:29;14.18;;;6.80;;
24261;SDS011;12385;51.412;5.540;2023-04-02T07:47:55;10.32;;;6.18;;
24261;SDS011;12385;51.412;5.540;2023-04-02T07:50:21;12.32;;;5.95;;
24261;SDS011;12385;51.412;5.540;2023-04-02T07:52:47;12.68;;;6.38;;
24261;SDS011;12385;51.412;5.540;2023-04-02T07:55:13;11.40;;;5.85;;
24261;SDS011;12385;51.412;5.540;2023-04-02T07:57:47;10.45;;;5.35;;
24261;SDS011;12385;51.412;5.540;2023-04-02T08:00:14;16.15;;;5.55;;
24261;SDS011;12385;51.412;5.540;2023-04-02T08:02:41;13.32;;;5.70;;
24261;SDS011;12385;51.412;5.540;2023-04-02T08:05:07;9.35;;;4.90;;
24261;SDS011;12385;51.412;5.540;2023-04-02T08:07:33;14.82;;;4.95;;
24261;SDS011;12385;51.412;5.540;2023-04-02T08:09:59;8.50;;;4.95;;
24261;SDS011;12385;51.412;5.540;2023-04-02T08:12:25;8.25;;;4.75;;
24261;SDS011;12385;51.412;5.540;2023-04-02T08:14:51;10.93;;;5.15;;
24261;SDS011;12385;51.412;5.540;2023-04-02T08:17:17;10.95;;;6.18;;
24261;SDS011;12385;51.412;5.540;2023-04-02T08:19:42;11.27;;;5.18;;
24261;SDS011;12385;51.412;5.540;2023-04-02T08:22:08;11.45;;;4.70;;
24261;SDS011;12385;51.412;5.540;2023-04-02T08:24:34;9.85;;;4.28;;
24261;SDS011;12385;51.412;5.540;2023-04-02T08:27:00;9.52;;;4.35;;
24261;SDS011;12385;51.412;5.540;2023-04-02T08:29:26;9.15;;;4.30;;
24261;SDS011;12385;51.412;5.540;2023-04-02T08:31:56;6.43;;;3.85;;
24261;SDS011;12385;51.412;5.540;2023-04-02T08:34:22;7.53;;;3.83;;
24261;SDS011;12385;51.412;5.540;2023-04-02T08:36:48;9.13;;;3.90;;
24261;SDS011;12385;51.412;5.540;2023-04-02T08:39:14;9.05;;;4.10;;
24261;SDS011;12385;51.412;5.540;2023-04-02T08:41:43;7.60;;;3.50;;
24261;SDS011;12385;51.412;5.540;2023-04-02T08:44:28;10.43;;;3.80;;
24261;SDS011;12385;51.412;5.540;2023-04-02T08:47:16;7.35;;;3.58;;
24261;SDS011;12385;51.412;5.540;2023-04-02T08:49:58;7.93;;;3.05;;
24261;SDS011;12385;51.412;5.540;2023-04-02T08:52:30;8.52;;;3.40;;
24261;SDS011;12385;51.412;5.540;2023-04-02T08:54:59;8.43;;;3.00;;
24261;SDS011;12385;51.412;5.540;2023-04-02T09:00:20;6.97;;;2.80;;
24261;SDS011;12385;51.412;5.540;2023-04-02T09:02:57;6.85;;;2.67;;
24261;SDS011;12385;51.412;5.540;2023-04-02T09:05:27;7.20;;;3.03;;
24261;SDS011;12385;51.412;5.540;2023-04-02T09:07:55;9.27;;;3.30;;
24261;SDS011;12385;51.412;5.540;2023-04-02T09:10:32;7.60;;;2.72;;
24261;SDS011;12385;51.412;5.540;2023-04-02T09:13:04;6.47;;;2.50;;
24261;SDS011;12385;51.412;5.540;2023-04-02T09:15:46;6.47;;;2.60;;
24261;SDS011;12385;51.412;5.540;2023-04-02T09:18:17;5.90;;;2.45;;
24261;SDS011;12385;51.412;5.540;2023-04-02T09:20:43;5.05;;;2.40;;
24261;SDS011;12385;51.412;5.540;2023-04-02T09:23:15;5.57;;;2.22;;
24261;SDS011;12385;51.412;5.540;2023-04-02T09:25:47;5.22;;;2.70;;
24261;SDS011;12385;51.412;5.540;2023-04-02T09:28:16;4.68;;;2.20;;
24261;SDS011;12385;51.412;5.540;2023-04-02T09:33:43;6.43;;;2.80;;
24261;SDS011;12385;51.412;5.540;2023-04-02T09:36:32;8.50;;;2.80;;
24261;SDS011;12385;51.412;5.540;2023-04-02T09:39:19;7.68;;;2.65;;
24261;SDS011;12385;51.412;5.540;2023-04-02T09:41:46;7.18;;;2.85;;
24261;SDS011;12385;51.412;5.540;2023-04-02T09:44:23;6.47;;;2.38;;
24261;SDS011;12385;51.412;5.540;2023-04-02T09:46:59;4.93;;;2.58;;
24261;SDS011;12385;51.412;5.540;2023-04-02T09:49:46;4.82;;;2.13;;
24261;SDS011;12385;51.412;5.540;2023-04-02T09:52:17;8.10;;;2.35;;
24261;SDS011;12385;51.412;5.540;2023-04-02T09:57:45;4.25;;;2.00;;
24261;SDS011;12385;51.412;5.540;2023-04-02T10:00:17;5.65;;;2.38;;
24261;SDS011;12385;51.412;5.540;2023-04-02T10:02:58;7.35;;;2.40;;
24261;SDS011;12385;51.412;5.540;2023-04-02T10:07:53;6.07;;;2.30;;
24261;SDS011;12385;51.412;5.540;2023-04-02T10:10:30;4.07;;;1.98;;
24261;SDS011;12385;51.412;5.540;2023-04-02T10:13:03;6.40;;;2.38;;
24261;SDS011;12385;51.412;5.540;2023-04-02T10:18:36;7.43;;;2.58;;
24261;SDS011;12385;51.412;5.540;2023-04-02T10:21:04;8.57;;;2.78;;
24261;SDS011;12385;51.412;5.540;2023-04-02T10:23:30;6.80;;;2.15;;
24261;SDS011;12385;51.412;5.540;2023-04-02T10:31:32;4.28;;;2.05;;
24261;SDS011;12385;51.412;5.540;2023-04-02T10:34:11;6.25;;;2.40;;
24261;SDS011;12385;51.412;5.540;2023-04-02T10:39:19;8.93;;;2.60;;
24261;SDS011;12385;51.412;5.540;2023-04-02T10:47:21;4.72;;;1.92;;
24261;SDS011;12385;51.412;5.540;2023-04-02T10:53:13;4.40;;;1.92;;
24261;SDS011;12385;51.412;5.540;2023-04-02T10:55:44;4.75;;;2.60;;
24261;SDS011;12385;51.412;5.540;2023-04-02T10:58:17;5.55;;;2.10;;
24261;SDS011;12385;51.412;5.540;2023-04-02T11:00:54;4.90;;;2.05;;
24261;SDS011;12385;51.412;5.540;2023-04-02T11:03:30;5.80;;;2.35;;
24261;SDS011;12385;51.412;5.540;2023-04-02T11:06:23;4.70;;;1.80;;
24261;SDS011;12385;51.412;5.540;2023-04-02T11:08:59;9.13;;;2.38;;
24261;SDS011;12385;51.412;5.540;2023-04-02T11:11:30;6.53;;;2.30;;
24261;SDS011;12385;51.412;5.540;2023-04-02T11:16:41;6.97;;;2.30;;
24261;SDS011;12385;51.412;5.540;2023-04-02T11:21:40;6.45;;;2.30;;
24261;SDS011;12385;51.412;5.540;2023-04-02T11:24:23;6.22;;;2.22;;
24261;SDS011;12385;51.412;5.540;2023-04-02T11:26:50;4.90;;;2.15;;
24261;SDS011;12385;51.412;5.540;2023-04-02T11:29:26;7.65;;;2.40;;
24261;SDS011;12385;51.412;5.540;2023-04-02T11:39:59;5.85;;;2.20;;
24261;SDS011;12385;51.412;5.540;2023-04-02T11:42:40;5.57;;;2.20;;
24261;SDS011;12385;51.412;5.540;2023-04-02T11:50:29;6.95;;;2.45;;
24261;SDS011;12385;51.412;5.540;2023-04-02T11:52:56;3.28;;;1.85;;
24261;SDS011;12385;51.412;5.540;2023-04-02T11:55:32;5.53;;;1.80;;
24261;SDS011;12385;51.412;5.540;2023-04-02T12:03:03;6.50;;;1.92;;
24261;SDS011;12385;51.412;5.540;2023-04-02T12:08:56;5.95;;;2.15;;
24261;SDS011;12385;51.412;5.540;2023-04-02T12:11:32;6.32;;;2.17;;
24261;SDS011;12385;51.412;5.540;2023-04-02T12:14:02;6.18;;;1.95;;
24261;SDS011;12385;51.412;5.540;2023-04-02T12:16:46;4.95;;;1.80;;
24261;SDS011;12385;51.412;5.540;2023-04-02T12:19:12;5.35;;;2.80;;
24261;SDS011;12385;51.412;5.540;2023-04-02T12:21:43;5.30;;;2.13;;
24261;SDS011;12385;51.412;5.540;2023-04-02T12:24:15;3.83;;;1.70;;
24261;SDS011;12385;51.412;5.540;2023-04-02T12:26:44;7.28;;;2.05;;
24261;SDS011;12385;51.412;5.540;2023-04-02T12:29:26;8.90;;;2.20;;
24261;SDS011;12385;51.412;5.540;2023-04-02T12:31:56;4.97;;;1.70;;
24261;SDS011;12385;51.412;5.540;2023-04-02T12:34:24;5.88;;;2.00;;
24261;SDS011;12385;51.412;5.540;2023-04-02T12:39:18;5.00;;;1.90;;
24261;SDS011;12385;51.412;5.540;2023-04-02T12:41:44;4.60;;;2.05;;
24261;SDS011;12385;51.412;5.540;2023-04-02T12:44:20;3.28;;;1.95;;
24261;SDS011;12385;51.412;5.540;2023-04-02T12:46:48;5.10;;;2.10;;
24261;SDS011;12385;51.412;5.540;2023-04-02T12:49:29;5.05;;;2.20;;
24261;SDS011;12385;51.412;5.540;2023-04-02T12:52:00;4.47;;;1.80;;
24261;SDS011;12385;51.412;5.540;2023-04-02T12:54:28;3.00;;;2.10;;
24261;SDS011;12385;51.412;5.540;2023-04-02T12:59:46;7.05;;;2.10;;
24261;SDS011;12385;51.412;5.540;2023-04-02T13:02:17;4.55;;;2.03;;
24261;SDS011;12385;51.412;5.540;2023-04-02T13:04:54;4.32;;;1.80;;
24261;SDS011;12385;51.412;5.540;2023-04-02T13:07:25;4.97;;;1.70;;
24261;SDS011;12385;51.412;5.540;2023-04-02T13:09:55;7.28;;;2.25;;
24261;SDS011;12385;51.412;5.540;2023-04-02T13:15:00;4.80;;;1.88;;
24261;SDS011;12385;51.412;5.540;2023-04-02T13:17:35;3.90;;;1.75;;
24261;SDS011;12385;51.412;5.540;2023-04-02T13:23:00;7.93;;;1.98;;
24261;SDS011;12385;51.412;5.540;2023-04-02T13:25:45;3.33;;;1.83;;
24261;SDS011;12385;51.412;5.540;2023-04-02T13:28:11;3.85;;;1.45;;
24261;SDS011;12385;51.412;5.540;2023-04-02T13:30:37;5.97;;;1.80;;
24261;SDS011;12385;51.412;5.540;2023-04-02T13:33:02;5.88;;;1.63;;
24261;SDS011;12385;51.412;5.540;2023-04-02T13:35:28;5.28;;;1.60;;
24261;SDS011;12385;51.412;5.540;2023-04-02T13:37:53;3.22;;;1.70;;
24261;SDS011;12385;51.412;5.540;2023-04-02T13:40:19;5.20;;;1.60;;
24261;SDS011;12385;51.412;5.540;2023-04-02T13:42:45;2.60;;;1.50;;
24261;SDS011;12385;51.412;5.540;2023-04-02T13:45:18;4.25;;;1.67;;
24261;SDS011;12385;51.412;5.540;2023-04-02T13:47:48;4.03;;;1.70;;
24261;SDS011;12385;51.412;5.540;2023-04-02T13:50:15;5.40;;;1.80;;
24261;SDS011;12385;51.412;5.540;2023-04-02T13:52:42;3.95;;;1.50;;
24261;SDS011;12385;51.412;5.540;2023-04-02T13:55:08;8.05;;;2.65;;
24261;SDS011;12385;51.412;5.540;2023-04-02T13:57:35;8.57;;;1.80;;
24261;SDS011;12385;51.412;5.540;2023-04-02T14:00:02;3.38;;;1.70;;
24261;SDS011;12385;51.412;5.540;2023-04-02T14:02:29;6.82;;;1.80;;
24261;SDS011;12385;51.412;5.540;2023-04-02T14:05:38;5.35;;;1.83;;
24261;SDS011;12385;51.412;5.540;2023-04-02T14:07:50;5.38;;;1.80;;
24261;SDS011;12385;51.412;5.540;2023-04-02T14:13:17;5.28;;;1.90;;
24261;SDS011;12385;51.412;5.540;2023-04-02T14:16:17;3.95;;;1.63;;
24261;SDS011;12385;51.412;5.540;2023-04-02T14:19:03;3.97;;;1.42;;
24261;SDS011;12385;51.412;5.540;2023-04-02T14:21:44;3.60;;;1.63;;
24261;SDS011;12385;51.412;5.540;2023-04-02T14:24:19;6.80;;;1.70;;
24261;SDS011;12385;51.412;5.540;2023-04-02T14:29:46;4.50;;;1.95;;
24261;SDS011;12385;51.412;5.540;2023-04-02T14:40:32;4.85;;;1.70;;
24261;SDS011;12385;51.412;5.540;2023-04-02T14:43:26;4.97;;;1.63;;
24261;SDS011;12385;51.412;5.540;2023-04-02T14:46:04;3.50;;;1.50;;
24261;SDS011;12385;51.412;5.540;2023-04-02T14:51:33;6.85;;;2.03;;
24261;SDS011;12385;51.412;5.540;2023-04-02T14:56:53;5.32;;;1.70;;
24261;SDS011;12385;51.412;5.540;2023-04-02T14:59:24;3.83;;;1.60;;
24261;SDS011;12385;51.412;5.540;2023-04-02T15:02:01;5.07;;;1.80;;
24261;SDS011;12385;51.412;5.540;2023-04-02T15:04:34;2.42;;;1.50;;
24261;SDS011;12385;51.412;5.540;2023-04-02T15:07:08;3.78;;;1.60;;
24261;SDS011;12385;51.412;5.540;2023-04-02T15:12:41;3.65;;;1.90;;
24261;SDS011;12385;51.412;5.540;2023-04-02T15:15:51;5.03;;;2.00;;
24261;SDS011;12385;51.412;5.540;2023-04-02T15:18:00;5.60;;;1.80;;
24261;SDS011;12385;51.412;5.540;2023-04-02T15:20:27;3.72;;;1.50;;
24261;SDS011;12385;51.412;5.540;2023-04-02T15:23:04;5.05;;;2.03;;
24261;SDS011;12385;51.412;5.540;2023-04-02T15:26:00;2.72;;;1.30;;
24261;SDS011;12385;51.412;5.540;2023-04-02T15:28:32;3.90;;;1.60;;
24261;SDS011;12385;51.412;5.540;2023-04-02T15:31:04;4.03;;;1.70;;
24261;SDS011;12385;51.412;5.540;2023-04-02T15:36:23;4.97;;;1.63;;
24261;SDS011;12385;51.412;5.540;2023-04-02T15:41:51;2.88;;;1.48;;
24261;SDS011;12385;51.412;5.540;2023-04-02T15:44:32;3.92;;;1.80;;
24261;SDS011;12385;51.412;5.540;2023-04-02T15:47:09;5.68;;;1.60;;
24261;SDS011;12385;51.412;5.540;2023-04-02T15:50:04;3.85;;;1.65;;
24261;SDS011;12385;51.412;5.540;2023-04-02T15:55:41;4.65;;;1.67;;
24261;SDS011;12385;51.412;5.540;2023-04-02T16:01:46;8.18;;;2.10;;
24261;SDS011;12385;51.412;5.540;2023-04-02T16:12:35;4.88;;;1.60;;
24261;SDS011;12385;51.412;5.540;2023-04-02T16:15:16;5.00;;;1.83;;
24261;SDS011;12385;51.412;5.540;2023-04-02T16:21:16;3.80;;;1.80;;
24261;SDS011;12385;51.412;5.540;2023-04-02T16:23:45;4.60;;;1.70;;
24261;SDS011;12385;51.412;5.540;2023-04-02T16:37:25;3.45;;;1.80;;
24261;SDS011;12385;51.412;5.540;2023-04-02T16:46:08;4.43;;;1.58;;
24261;SDS011;12385;51.412;5.540;2023-04-02T16:51:59;3.65;;;1.58;;
24261;SDS011;12385;51.412;5.540;2023-04-02T16:55:00;3.85;;;1.70;;
24261;SDS011;12385;51.412;5.540;2023-04-02T16:57:36;3.77;;;1.77;;
24261;SDS011;12385;51.412;5.540;2023-04-02T17:03:05;4.13;;;1.77;;
24261;SDS011;12385;51.412;5.540;2023-04-02T17:11:22;3.47;;;1.63;;
24261;SDS011;12385;51.412;5.540;2023-04-02T17:13:53;5.55;;;1.80;;
24261;SDS011;12385;51.412;5.540;2023-04-02T17:16:35;2.85;;;1.70;;
24261;SDS011;12385;51.412;5.540;2023-04-02T17:19:09;2.95;;;1.70;;
24261;SDS011;12385;51.412;5.540;2023-04-02T17:21:36;4.82;;;1.77;;
24261;SDS011;12385;51.412;5.540;2023-04-02T17:24:27;4.70;;;1.70;;
24261;SDS011;12385;51.412;5.540;2023-04-02T17:29:42;3.78;;;1.90;;
24261;SDS011;12385;51.412;5.540;2023-04-02T17:32:28;4.97;;;1.90;;
24261;SDS011;12385;51.412;5.540;2023-04-02T17:37:55;6.97;;;2.00;;
24261;SDS011;12385;51.412;5.540;2023-04-02T17:40:34;4.82;;;2.00;;
24261;SDS011;12385;51.412;5.540;2023-04-02T17:46:28;6.10;;;1.90;;
24261;SDS011;12385;51.412;5.540;2023-04-02T18:16:51;4.40;;;1.80;;
24261;SDS011;12385;51.412;5.540;2023-04-02T18:47:24;6.15;;;2.22;;
24261;SDS011;12385;51.412;5.540;2023-04-02T18:50:17;6.15;;;2.00;;
24261;SDS011;12385;51.412;5.540;2023-04-02T18:52:55;5.30;;;1.90;;
24261;SDS011;12385;51.412;5.540;2023-04-02T18:55:24;5.88;;;2.38;;
24261;SDS011;12385;51.412;5.540;2023-04-02T18:58:03;6.07;;;2.42;;
24261;SDS011;12385;51.412;5.540;2023-04-02T19:00:39;4.05;;;2.08;;
24261;SDS011;12385;51.412;5.540;2023-04-02T19:11:11;6.43;;;2.20;;
24261;SDS011;12385;51.412;5.540;2023-04-02T19:13:40;7.45;;;2.30;;
24261;SDS011;12385;51.412;5.540;2023-04-02T19:27:09;3.72;;;2.10;;
24261;SDS011;12385;51.412;5.540;2023-04-02T19:30:00;5.57;;;2.72;;
24261;SDS011;12385;51.412;5.540;2023-04-02T19:35:46;10.18;;;2.40;;
24261;SDS011;12385;51.412;5.540;2023-04-02T19:44:05;6.28;;;2.90;;
24261;SDS011;12385;51.412;5.540;2023-04-02T19:46:36;5.93;;;3.33;;
24261;SDS011;12385;51.412;5.540;2023-04-02T19:49:11;8.15;;;3.50;;
24261;SDS011;12385;51.412;5.540;2023-04-02T19:51:47;9.50;;;3.50;;
24261;SDS011;12385;51.412;5.540;2023-04-02T19:54:13;5.85;;;3.40;;
24261;SDS011;12385;51.412;5.540;2023-04-02T19:56:39;6.18;;;3.47;;
24261;SDS011;12385;51.412;5.540;2023-04-02T19:59:06;7.63;;;3.20;;
24261;SDS011;12385;51.412;5.540;2023-04-02T20:01:33;5.88;;;3.22;;
24261;SDS011;12385;51.412;5.540;2023-04-02T20:03:59;4.93;;;3.05;;
24261;SDS011;12385;51.412;5.540;2023-04-02T20:06:25;7.10;;;3.05;;
24261;SDS011;12385;51.412;5.540;2023-04-02T20:08:51;10.10;;;3.03;;
24261;SDS011;12385;51.412;5.540;2023-04-02T20:11:18;7.65;;;2.75;;
24261;SDS011;12385;51.412;5.540;2023-04-02T20:13:43;6.43;;;3.20;;
24261;SDS011;12385;51.412;5.540;2023-04-02T20:16:09;6.65;;;3.53;;
24261;SDS011;12385;51.412;5.540;2023-04-02T20:18:35;6.13;;;3.03;;
24261;SDS011;12385;51.412;5.540;2023-04-02T20:21:05;7.20;;;3.47;;
24261;SDS011;12385;51.412;5.540;2023-04-02T20:23:31;8.77;;;3.80;;
24261;SDS011;12385;51.412;5.540;2023-04-02T20:25:58;10.40;;;3.78;;
24261;SDS011;12385;51.412;5.540;2023-04-02T20:28:24;9.10;;;3.90;;
24261;SDS011;12385;51.412;5.540;2023-04-02T20:30:51;9.32;;;3.75;;
24261;SDS011;12385;51.412;5.540;2023-04-02T20:33:18;9.93;;;3.72;;
24261;SDS011;12385;51.412;5.540;2023-04-02T20:35:46;9.55;;;3.45;;